sensor_id;sensor_type;location;lat;lon;timestamp;temperature;humidity
12568;DHT22;6349;50.904;6.136;2022-09-03T00:01:49;17.40;99.90
12568;DHT22;6349;50.904;6.136;2022-09-03T00:03:57;17.30;99.90
12568;DHT22;6349;50.904;6.136;2022-09-03T00:06:12;17.30;99.90
12568;DHT22;6349;50.904;6.136;2022-09-03T00:08:26;17.30;99.90
12568;DHT22;6349;50.904;6.136;2022-09-03T00:10:44;17.30;99.90
12568;DHT22;6349;50.904;6.136;2022-09-03T00:12:46;17.30;99.90
12568;DHT22;6349;50.904;6.136;2022-09-03T00:14:52;17.20;99.90
12568;DHT22;6349;50.904;6.136;2022-09-03T00:17:05;17.10;99.90
12568;DHT22;6349;50.904;6.136;2022-09-03T00:19:08;17.10;99.90
12568;DHT22;6349;50.904;6.136;2022-09-03T00:21:14;17.00;99.90
12568;DHT22;6349;50.904;6.136;2022-09-03T00:23:22;16.90;99.90
12568;DHT22;6349;50.904;6.136;2022-09-03T00:25:35;16.90;99.90
12568;DHT22;6349;50.904;6.136;2022-09-03T00:27:38;16.90;99.90
12568;DHT22;6349;50.904;6.136;2022-09-03T00:29:48;16.80;99.90
12568;DHT22;6349;50.904;6.136;2022-09-03T00:31:53;16.90;99.90
12568;DHT22;6349;50.904;6.136;2022-09-03T00:34:01;16.90;99.90
12568;DHT22;6349;50.904;6.136;2022-09-03T00:36:14;16.90;99.90
12568;DHT22;6349;50.904;6.136;2022-09-03T00:38:15;16.80;99.90
12568;DHT22;6349;50.904;6.136;2022-09-03T00:41:12;16.80;99.90
12568;DHT22;6349;50.904;6.136;2022-09-03T00:43:14;16.70;99.90
12568;DHT22;6349;50.904;6.136;2022-09-03T00:45:39;16.70;99.90
12568;DHT22;6349;50.904;6.136;2022-09-03T00:51:08;16.50;99.90
12568;DHT22;6349;50.904;6.136;2022-09-03T00:53:24;16.50;99.90
12568;DHT22;6349;50.904;6.136;2022-09-03T01:00:41;16.50;99.90
12568;DHT22;6349;50.904;6.136;2022-09-03T01:07:48;16.40;99.90
12568;DHT22;6349;50.904;6.136;2022-09-03T01:12:17;16.40;99.90
12568;DHT22;6349;50.904;6.136;2022-09-03T01:14:33;16.30;99.90
12568;DHT22;6349;50.904;6.136;2022-09-03T01:16:51;16.30;99.90
12568;DHT22;6349;50.904;6.136;2022-09-03T01:24:52;16.20;99.90
12568;DHT22;6349;50.904;6.136;2022-09-03T01:30:06;16.20;99.90
12568;DHT22;6349;50.904;6.136;2022-09-03T01:32:13;16.20;99.90
12568;DHT22;6349;50.904;6.136;2022-09-03T01:34:40;16.10;99.90
12568;DHT22;6349;50.904;6.136;2022-09-03T01:39:00;16.10;99.90
12568;DHT22;6349;50.904;6.136;2022-09-03T01:41:32;16.10;99.90
12568;DHT22;6349;50.904;6.136;2022-09-03T01:44:35;16.00;99.90
12568;DHT22;6349;50.904;6.136;2022-09-03T01:46:39;16.00;99.90
12568;DHT22;6349;50.904;6.136;2022-09-03T01:48:47;16.00;99.90
12568;DHT22;6349;50.904;6.136;2022-09-03T01:51:07;15.90;99.90
12568;DHT22;6349;50.904;6.136;2022-09-03T01:58:34;15.80;99.90
12568;DHT22;6349;50.904;6.136;2022-09-03T02:00:38;15.80;99.90
12568;DHT22;6349;50.904;6.136;2022-09-03T02:02:43;15.80;99.90
12568;DHT22;6349;50.904;6.136;2022-09-03T02:05:06;15.70;99.90
12568;DHT22;6349;50.904;6.136;2022-09-03T02:07:08;15.80;99.90
12568;DHT22;6349;50.904;6.136;2022-09-03T02:09:09;15.80;99.90
12568;DHT22;6349;50.904;6.136;2022-09-03T02:11:09;15.70;99.90
12568;DHT22;6349;50.904;6.136;2022-09-03T02:15:27;15.70;99.90
12568;DHT22;6349;50.904;6.136;2022-09-03T02:17:31;15.70;99.90
12568;DHT22;6349;50.904;6.136;2022-09-03T02:19:32;15.70;99.90
12568;DHT22;6349;50.904;6.136;2022-09-03T02:21:37;15.70;99.90
12568;DHT22;6349;50.904;6.136;2022-09-03T02:23:39;15.60;99.90
12568;DHT22;6349;50.904;6.136;2022-09-03T02:25:44;15.60;99.90
12568;DHT22;6349;50.904;6.136;2022-09-03T02:27:48;15.60;99.90
12568;DHT22;6349;50.904;6.136;2022-09-03T02:29:49;15.60;99.90
12568;DHT22;6349;50.904;6.136;2022-09-03T02:31:50;15.60;99.90
12568;DHT22;6349;50.904;6.136;2022-09-03T02:33:51;15.70;99.90
12568;DHT22;6349;50.904;6.136;2022-09-03T02:35:52;15.70;99.90
12568;DHT22;6349;50.904;6.136;2022-09-03T02:37:53;15.70;99.90
12568;DHT22;6349;50.904;6.136;2022-09-03T02:39:54;15.60;99.90
12568;DHT22;6349;50.904;6.136;2022-09-03T02:42:01;15.60;99.90
12568;DHT22;6349;50.904;6.136;2022-09-03T02:44:23;15.60;99.90
12568;DHT22;6349;50.904;6.136;2022-09-03T02:46:37;15.60;99.90
12568;DHT22;6349;50.904;6.136;2022-09-03T02:48:38;15.60;99.90
12568;DHT22;6349;50.904;6.136;2022-09-03T02:50:40;15.60;99.90
12568;DHT22;6349;50.904;6.136;2022-09-03T02:52:41;15.50;99.90
12568;DHT22;6349;50.904;6.136;2022-09-03T02:54:42;15.60;99.90
12568;DHT22;6349;50.904;6.136;2022-09-03T02:56:44;15.60;99.90
12568;DHT22;6349;50.904;6.136;2022-09-03T02:58:47;15.60;99.90
12568;DHT22;6349;50.904;6.136;2022-09-03T03:00:48;15.70;99.90
12568;DHT22;6349;50.904;6.136;2022-09-03T03:02:48;15.60;99.90
12568;DHT22;6349;50.904;6.136;2022-09-03T03:04:50;15.60;99.90
12568;DHT22;6349;50.904;6.136;2022-09-03T03:06:50;15.60;99.90
12568;DHT22;6349;50.904;6.136;2022-09-03T03:08:51;15.60;99.90
12568;DHT22;6349;50.904;6.136;2022-09-03T03:10:57;15.60;99.90
12568;DHT22;6349;50.904;6.136;2022-09-03T03:13:00;15.60;99.90
12568;DHT22;6349;50.904;6.136;2022-09-03T03:15:00;15.50;99.90
12568;DHT22;6349;50.904;6.136;2022-09-03T03:17:01;15.50;99.90
12568;DHT22;6349;50.904;6.136;2022-09-03T03:19:02;15.60;99.90
12568;DHT22;6349;50.904;6.136;2022-09-03T03:21:05;15.60;99.90
12568;DHT22;6349;50.904;6.136;2022-09-03T03:23:07;15.70;99.90
12568;DHT22;6349;50.904;6.136;2022-09-03T03:25:08;15.70;99.90
12568;DHT22;6349;50.904;6.136;2022-09-03T03:27:09;15.70;99.90
12568;DHT22;6349;50.904;6.136;2022-09-03T03:29:14;15.60;99.90
12568;DHT22;6349;50.904;6.136;2022-09-03T03:31:19;15.60;99.90
12568;DHT22;6349;50.904;6.136;2022-09-03T03:33:20;15.60;99.90
12568;DHT22;6349;50.904;6.136;2022-09-03T03:35:22;15.60;99.90
12568;DHT22;6349;50.904;6.136;2022-09-03T03:37:23;15.60;99.90
12568;DHT22;6349;50.904;6.136;2022-09-03T03:39:23;15.60;99.90
12568;DHT22;6349;50.904;6.136;2022-09-03T03:41:27;15.70;99.90
12568;DHT22;6349;50.904;6.136;2022-09-03T03:43:30;15.70;99.90
12568;DHT22;6349;50.904;6.136;2022-09-03T03:45:31;15.70;99.90
12568;DHT22;6349;50.904;6.136;2022-09-03T03:47:32;15.60;99.90
12568;DHT22;6349;50.904;6.136;2022-09-03T03:49:33;15.70;99.90
12568;DHT22;6349;50.904;6.136;2022-09-03T03:51:34;15.60;99.90
12568;DHT22;6349;50.904;6.136;2022-09-03T03:53:37;15.60;99.90
12568;DHT22;6349;50.904;6.136;2022-09-03T03:55:37;15.70;99.90
12568;DHT22;6349;50.904;6.136;2022-09-03T03:57:38;15.70;99.90
12568;DHT22;6349;50.904;6.136;2022-09-03T03:59:39;15.70;99.90
12568;DHT22;6349;50.904;6.136;2022-09-03T04:01:40;15.70;99.90
12568;DHT22;6349;50.904;6.136;2022-09-03T04:03:41;15.70;99.90
12568;DHT22;6349;50.904;6.136;2022-09-03T04:05:42;15.70;99.90
12568;DHT22;6349;50.904;6.136;2022-09-03T04:07:42;15.70;99.90
12568;DHT22;6349;50.904;6.136;2022-09-03T04:09:44;15.80;99.90
12568;DHT22;6349;50.904;6.136;2022-09-03T04:11:44;15.80;99.90
12568;DHT22;6349;50.904;6.136;2022-09-03T04:13:46;15.80;99.90
12568;DHT22;6349;50.904;6.136;2022-09-03T04:15:47;15.80;99.90
12568;DHT22;6349;50.904;6.136;2022-09-03T04:17:47;15.80;99.90
12568;DHT22;6349;50.904;6.136;2022-09-03T04:19:48;15.80;99.90
12568;DHT22;6349;50.904;6.136;2022-09-03T04:21:49;15.80;99.90
12568;DHT22;6349;50.904;6.136;2022-09-03T04:23:51;15.80;99.90
12568;DHT22;6349;50.904;6.136;2022-09-03T04:25:52;15.80;99.90
12568;DHT22;6349;50.904;6.136;2022-09-03T04:27:53;15.80;99.90
12568;DHT22;6349;50.904;6.136;2022-09-03T04:29:53;15.80;99.90
12568;DHT22;6349;50.904;6.136;2022-09-03T04:31:54;15.80;99.90
12568;DHT22;6349;50.904;6.136;2022-09-03T04:34:14;15.80;99.90
12568;DHT22;6349;50.904;6.136;2022-09-03T04:36:19;15.80;99.90
12568;DHT22;6349;50.904;6.136;2022-09-03T04:38:20;15.80;99.90
12568;DHT22;6349;50.904;6.136;2022-09-03T04:40:20;15.70;99.90
12568;DHT22;6349;50.904;6.136;2022-09-03T04:42:21;15.80;99.90
12568;DHT22;6349;50.904;6.136;2022-09-03T04:44:22;15.80;99.90
12568;DHT22;6349;50.904;6.136;2022-09-03T04:46:25;15.80;99.90
12568;DHT22;6349;50.904;6.136;2022-09-03T04:48:26;15.80;99.90
12568;DHT22;6349;50.904;6.136;2022-09-03T04:50:28;15.90;99.90
12568;DHT22;6349;50.904;6.136;2022-09-03T04:52:29;15.90;99.90
12568;DHT22;6349;50.904;6.136;2022-09-03T04:54:30;15.90;99.90
12568;DHT22;6349;50.904;6.136;2022-09-03T04:56:33;15.90;99.90
12568;DHT22;6349;50.904;6.136;2022-09-03T04:58:34;15.90;99.90
12568;DHT22;6349;50.904;6.136;2022-09-03T05:00:36;15.90;99.90
12568;DHT22;6349;50.904;6.136;2022-09-03T05:02:37;15.80;99.90
12568;DHT22;6349;50.904;6.136;2022-09-03T05:04:37;15.80;99.90
12568;DHT22;6349;50.904;6.136;2022-09-03T05:06:38;15.80;99.90
12568;DHT22;6349;50.904;6.136;2022-09-03T05:08:39;15.70;99.90
12568;DHT22;6349;50.904;6.136;2022-09-03T05:10:39;15.80;99.90
12568;DHT22;6349;50.904;6.136;2022-09-03T05:12:41;15.80;99.90
12568;DHT22;6349;50.904;6.136;2022-09-03T05:14:42;15.70;99.90
12568;DHT22;6349;50.904;6.136;2022-09-03T05:16:43;15.60;99.90
12568;DHT22;6349;50.904;6.136;2022-09-03T05:18:43;15.70;99.90
12568;DHT22;6349;50.904;6.136;2022-09-03T05:20:46;15.60;99.90
12568;DHT22;6349;50.904;6.136;2022-09-03T05:22:46;15.60;99.90
12568;DHT22;6349;50.904;6.136;2022-09-03T05:24:47;15.60;99.90
12568;DHT22;6349;50.904;6.136;2022-09-03T05:26:48;15.50;99.90
12568;DHT22;6349;50.904;6.136;2022-09-03T05:28:53;15.60;99.90
12568;DHT22;6349;50.904;6.136;2022-09-03T05:31:15;15.60;99.90
12568;DHT22;6349;50.904;6.136;2022-09-03T05:33:16;15.60;99.90
12568;DHT22;6349;50.904;6.136;2022-09-03T05:35:17;15.60;99.90
12568;DHT22;6349;50.904;6.136;2022-09-03T05:37:18;15.60;99.90
12568;DHT22;6349;50.904;6.136;2022-09-03T05:39:18;15.60;99.90
12568;DHT22;6349;50.904;6.136;2022-09-03T05:41:19;15.60;99.90
12568;DHT22;6349;50.904;6.136;2022-09-03T05:43:21;15.60;99.90
12568;DHT22;6349;50.904;6.136;2022-09-03T05:45:21;15.50;99.90
12568;DHT22;6349;50.904;6.136;2022-09-03T05:47:22;15.60;99.90
12568;DHT22;6349;50.904;6.136;2022-09-03T05:49:23;15.50;99.90
12568;DHT22;6349;50.904;6.136;2022-09-03T05:51:24;15.60;99.90
12568;DHT22;6349;50.904;6.136;2022-09-03T05:53:26;15.60;99.90
12568;DHT22;6349;50.904;6.136;2022-09-03T05:55:27;15.60;99.90
12568;DHT22;6349;50.904;6.136;2022-09-03T05:57:28;15.60;99.90
12568;DHT22;6349;50.904;6.136;2022-09-03T05:59:30;15.60;99.90
12568;DHT22;6349;50.904;6.136;2022-09-03T06:01:33;15.70;99.90
12568;DHT22;6349;50.904;6.136;2022-09-03T06:03:33;15.60;99.90
12568;DHT22;6349;50.904;6.136;2022-09-03T06:05:34;15.70;99.90
12568;DHT22;6349;50.904;6.136;2022-09-03T06:07:35;15.80;99.90
12568;DHT22;6349;50.904;6.136;2022-09-03T06:09:35;15.80;99.90
12568;DHT22;6349;50.904;6.136;2022-09-03T06:11:38;15.90;99.90
12568;DHT22;6349;50.904;6.136;2022-09-03T06:13:39;15.90;99.90
12568;DHT22;6349;50.904;6.136;2022-09-03T06:15:39;16.00;99.90
12568;DHT22;6349;50.904;6.136;2022-09-03T06:17:40;16.00;99.90
12568;DHT22;6349;50.904;6.136;2022-09-03T06:19:41;16.20;99.90
12568;DHT22;6349;50.904;6.136;2022-09-03T06:21:43;16.20;99.90
12568;DHT22;6349;50.904;6.136;2022-09-03T06:23:49;16.30;99.90
12568;DHT22;6349;50.904;6.136;2022-09-03T06:26:11;16.40;99.90
12568;DHT22;6349;50.904;6.136;2022-09-03T06:28:12;16.50;99.90
12568;DHT22;6349;50.904;6.136;2022-09-03T06:30:13;16.60;99.90
12568;DHT22;6349;50.904;6.136;2022-09-03T06:32:15;16.70;99.90
12568;DHT22;6349;50.904;6.136;2022-09-03T06:34:16;16.80;99.90
12568;DHT22;6349;50.904;6.136;2022-09-03T06:36:18;16.80;99.90
12568;DHT22;6349;50.904;6.136;2022-09-03T06:38:19;16.90;99.90
12568;DHT22;6349;50.904;6.136;2022-09-03T06:40:20;16.90;99.90
12568;DHT22;6349;50.904;6.136;2022-09-03T06:42:22;16.90;99.90
12568;DHT22;6349;50.904;6.136;2022-09-03T06:44:23;17.00;99.90
12568;DHT22;6349;50.904;6.136;2022-09-03T06:46:24;17.10;99.90
12568;DHT22;6349;50.904;6.136;2022-09-03T06:48:25;17.20;99.90
12568;DHT22;6349;50.904;6.136;2022-09-03T06:50:26;17.20;99.90
12568;DHT22;6349;50.904;6.136;2022-09-03T06:52:28;17.30;99.90
12568;DHT22;6349;50.904;6.136;2022-09-03T06:54:29;17.30;99.90
12568;DHT22;6349;50.904;6.136;2022-09-03T06:56:30;17.40;99.90
12568;DHT22;6349;50.904;6.136;2022-09-03T06:58:34;17.40;99.90
12568;DHT22;6349;50.904;6.136;2022-09-03T07:00:37;17.40;99.90
12568;DHT22;6349;50.904;6.136;2022-09-03T07:02:37;17.50;99.90
12568;DHT22;6349;50.904;6.136;2022-09-03T07:04:38;17.50;99.90
12568;DHT22;6349;50.904;6.136;2022-09-03T07:06:40;17.60;99.90
12568;DHT22;6349;50.904;6.136;2022-09-03T07:08:42;17.60;99.90
12568;DHT22;6349;50.904;6.136;2022-09-03T07:10:46;17.60;99.90
12568;DHT22;6349;50.904;6.136;2022-09-03T07:12:47;17.60;99.90
12568;DHT22;6349;50.904;6.136;2022-09-03T07:14:47;17.60;99.90
12568;DHT22;6349;50.904;6.136;2022-09-03T07:16:48;17.60;99.90
12568;DHT22;6349;50.904;6.136;2022-09-03T07:18:50;17.60;99.90
12568;DHT22;6349;50.904;6.136;2022-09-03T07:20:50;17.70;99.90
12568;DHT22;6349;50.904;6.136;2022-09-03T07:22:54;17.70;99.90
12568;DHT22;6349;50.904;6.136;2022-09-03T07:24:55;17.80;99.90
12568;DHT22;6349;50.904;6.136;2022-09-03T07:26:56;17.80;99.90
12568;DHT22;6349;50.904;6.136;2022-09-03T07:28:58;17.90;99.90
12568;DHT22;6349;50.904;6.136;2022-09-03T07:31:04;17.90;99.90
12568;DHT22;6349;50.904;6.136;2022-09-03T07:33:04;17.90;99.90
12568;DHT22;6349;50.904;6.136;2022-09-03T07:35:07;18.00;99.90
12568;DHT22;6349;50.904;6.136;2022-09-03T07:37:07;18.10;99.90
12568;DHT22;6349;50.904;6.136;2022-09-03T07:39:10;18.20;99.90
12568;DHT22;6349;50.904;6.136;2022-09-03T07:41:13;18.20;99.90
12568;DHT22;6349;50.904;6.136;2022-09-03T07:43:13;18.30;99.90
12568;DHT22;6349;50.904;6.136;2022-09-03T07:45:14;18.30;99.90
12568;DHT22;6349;50.904;6.136;2022-09-03T07:47:15;18.40;99.90
12568;DHT22;6349;50.904;6.136;2022-09-03T07:49:18;18.50;99.90
12568;DHT22;6349;50.904;6.136;2022-09-03T07:51:21;18.50;99.90
12568;DHT22;6349;50.904;6.136;2022-09-03T07:53:26;18.60;99.90
12568;DHT22;6349;50.904;6.136;2022-09-03T07:55:28;18.70;99.90
12568;DHT22;6349;50.904;6.136;2022-09-03T07:57:28;18.80;99.90
12568;DHT22;6349;50.904;6.136;2022-09-03T07:59:29;18.80;99.90
12568;DHT22;6349;50.904;6.136;2022-09-03T08:01:31;18.90;99.90
12568;DHT22;6349;50.904;6.136;2022-09-03T08:03:32;18.90;99.90
12568;DHT22;6349;50.904;6.136;2022-09-03T08:05:35;18.90;99.90
12568;DHT22;6349;50.904;6.136;2022-09-03T08:07:36;19.10;99.90
12568;DHT22;6349;50.904;6.136;2022-09-03T08:09:36;19.10;99.90
12568;DHT22;6349;50.904;6.136;2022-09-03T08:11:40;19.20;99.90
12568;DHT22;6349;50.904;6.136;2022-09-03T08:13:44;19.20;99.90
12568;DHT22;6349;50.904;6.136;2022-09-03T08:16:00;19.30;99.90
12568;DHT22;6349;50.904;6.136;2022-09-03T08:18:01;19.40;99.90
12568;DHT22;6349;50.904;6.136;2022-09-03T08:20:02;19.50;99.90
12568;DHT22;6349;50.904;6.136;2022-09-03T08:22:03;19.50;99.90
12568;DHT22;6349;50.904;6.136;2022-09-03T08:24:05;19.60;99.90
12568;DHT22;6349;50.904;6.136;2022-09-03T08:26:06;19.70;99.90
12568;DHT22;6349;50.904;6.136;2022-09-03T08:28:07;19.70;99.90
12568;DHT22;6349;50.904;6.136;2022-09-03T08:30:08;19.80;99.90
12568;DHT22;6349;50.904;6.136;2022-09-03T08:32:10;19.90;99.90
12568;DHT22;6349;50.904;6.136;2022-09-03T08:34:11;19.90;99.90
12568;DHT22;6349;50.904;6.136;2022-09-03T08:36:17;19.90;99.90
12568;DHT22;6349;50.904;6.136;2022-09-03T08:38:37;20.00;99.90
12568;DHT22;6349;50.904;6.136;2022-09-03T08:41:19;20.00;99.90
12568;DHT22;6349;50.904;6.136;2022-09-03T12:14:06;24.10;99.90
12568;DHT22;6349;50.904;6.136;2022-09-03T12:19:24;24.10;99.90
12568;DHT22;6349;50.904;6.136;2022-09-03T12:21:48;24.10;99.90
12568;DHT22;6349;50.904;6.136;2022-09-03T12:24:10;24.20;99.90
12568;DHT22;6349;50.904;6.136;2022-09-03T12:26:39;24.30;99.90
12568;DHT22;6349;50.904;6.136;2022-09-03T12:29:01;24.40;99.90
12568;DHT22;6349;50.904;6.136;2022-09-03T12:31:25;24.50;99.90
12568;DHT22;6349;50.904;6.136;2022-09-03T12:33:59;24.50;99.90
12568;DHT22;6349;50.904;6.136;2022-09-03T12:36:21;24.50;99.90
12568;DHT22;6349;50.904;6.136;2022-09-03T12:38:42;24.50;99.90
12568;DHT22;6349;50.904;6.136;2022-09-03T12:41:03;24.50;99.90
12568;DHT22;6349;50.904;6.136;2022-09-03T12:43:27;24.40;99.90
12568;DHT22;6349;50.904;6.136;2022-09-03T12:45:49;24.50;99.90
12568;DHT22;6349;50.904;6.136;2022-09-03T12:48:13;24.50;99.90
12568;DHT22;6349;50.904;6.136;2022-09-03T12:50:35;24.30;99.90
12568;DHT22;6349;50.904;6.136;2022-09-03T12:53:00;24.40;99.90
12568;DHT22;6349;50.904;6.136;2022-09-03T12:55:44;24.50;99.90
12568;DHT22;6349;50.904;6.136;2022-09-03T12:58:14;24.70;99.90
12568;DHT22;6349;50.904;6.136;2022-09-03T13:00:40;24.80;99.90
12568;DHT22;6349;50.904;6.136;2022-09-03T13:03:07;24.80;99.90
12568;DHT22;6349;50.904;6.136;2022-09-03T13:05:34;24.90;99.90
12568;DHT22;6349;50.904;6.136;2022-09-03T13:07:58;25.10;99.90
12568;DHT22;6349;50.904;6.136;2022-09-03T13:10:29;25.10;99.90
12568;DHT22;6349;50.904;6.136;2022-09-03T13:12:51;25.30;99.90
12568;DHT22;6349;50.904;6.136;2022-09-03T13:15:22;25.40;99.90
12568;DHT22;6349;50.904;6.136;2022-09-03T13:18:09;25.50;99.90
12568;DHT22;6349;50.904;6.136;2022-09-03T13:20:53;25.60;99.90
12568;DHT22;6349;50.904;6.136;2022-09-03T13:23:57;25.60;99.90
12568;DHT22;6349;50.904;6.136;2022-09-03T13:31:45;25.10;99.90
12568;DHT22;6349;50.904;6.136;2022-09-03T13:34:13;25.00;99.90
12568;DHT22;6349;50.904;6.136;2022-09-03T13:39:29;24.90;99.90
12568;DHT22;6349;50.904;6.136;2022-09-03T13:42:05;24.90;99.90
12568;DHT22;6349;50.904;6.136;2022-09-03T13:44:49;24.80;99.90
12568;DHT22;6349;50.904;6.136;2022-09-03T13:47:25;24.80;99.90
12568;DHT22;6349;50.904;6.136;2022-09-03T13:50:22;24.80;99.90
12568;DHT22;6349;50.904;6.136;2022-09-03T13:55:54;25.10;99.90
12568;DHT22;6349;50.904;6.136;2022-09-03T13:58:40;25.20;99.90
12568;DHT22;6349;50.904;6.136;2022-09-03T14:01:10;25.00;99.90
12568;DHT22;6349;50.904;6.136;2022-09-03T14:03:46;24.80;99.90
12568;DHT22;6349;50.904;6.136;2022-09-03T14:07:01;24.60;99.90
12568;DHT22;6349;50.904;6.136;2022-09-03T14:12:03;24.30;99.90
12568;DHT22;6349;50.904;6.136;2022-09-03T14:18:08;24.20;99.90
12568;DHT22;6349;50.904;6.136;2022-09-03T14:20:31;24.30;99.90
12568;DHT22;6349;50.904;6.136;2022-09-03T14:25:39;24.30;99.90
12568;DHT22;6349;50.904;6.136;2022-09-03T14:31:01;24.40;99.90
12568;DHT22;6349;50.904;6.136;2022-09-03T14:36:40;24.50;99.90
12568;DHT22;6349;50.904;6.136;2022-09-03T14:39:29;24.40;99.90
12568;DHT22;6349;50.904;6.136;2022-09-03T14:44:31;24.40;99.90
12568;DHT22;6349;50.904;6.136;2022-09-03T14:47:47;24.40;99.90
12568;DHT22;6349;50.904;6.136;2022-09-03T15:01:42;24.10;99.90
12568;DHT22;6349;50.904;6.136;2022-09-03T15:04:30;24.10;99.90
12568;DHT22;6349;50.904;6.136;2022-09-03T15:08:07;24.10;99.90
12568;DHT22;6349;50.904;6.136;2022-09-03T15:10:09;24.10;99.90
12568;DHT22;6349;50.904;6.136;2022-09-03T15:12:37;23.90;99.90
12568;DHT22;6349;50.904;6.136;2022-09-03T15:15:07;23.80;99.90
12568;DHT22;6349;50.904;6.136;2022-09-03T15:17:59;23.70;99.90
12568;DHT22;6349;50.904;6.136;2022-09-03T15:20:47;23.50;99.90
12568;DHT22;6349;50.904;6.136;2022-09-03T15:23:16;23.40;99.90
12568;DHT22;6349;50.904;6.136;2022-09-03T15:28:58;23.30;99.90
12568;DHT22;6349;50.904;6.136;2022-09-03T15:31:43;23.30;99.90
12568;DHT22;6349;50.904;6.136;2022-09-03T15:34:30;23.30;99.90
12568;DHT22;6349;50.904;6.136;2022-09-03T15:36:57;23.30;99.90
12568;DHT22;6349;50.904;6.136;2022-09-03T15:39:36;23.40;99.90
12568;DHT22;6349;50.904;6.136;2022-09-03T15:42:03;23.40;99.90
12568;DHT22;6349;50.904;6.136;2022-09-03T15:44:34;23.30;99.90
12568;DHT22;6349;50.904;6.136;2022-09-03T15:47:00;23.20;99.90
12568;DHT22;6349;50.904;6.136;2022-09-03T15:55:31;23.20;99.90
12568;DHT22;6349;50.904;6.136;2022-09-03T15:58:20;23.40;99.90
12568;DHT22;6349;50.904;6.136;2022-09-03T16:03:01;23.60;99.90
12568;DHT22;6349;50.904;6.136;2022-09-03T16:06:12;23.90;99.90
12568;DHT22;6349;50.904;6.136;2022-09-03T16:08:22;23.90;99.90
12568;DHT22;6349;50.904;6.136;2022-09-03T16:15:47;24.00;99.90
12568;DHT22;6349;50.904;6.136;2022-09-03T16:18:24;24.00;99.90
12568;DHT22;6349;50.904;6.136;2022-09-03T16:21:14;24.10;99.90
12568;DHT22;6349;50.904;6.136;2022-09-03T16:24:02;24.20;99.90
12568;DHT22;6349;50.904;6.136;2022-09-03T16:27:08;24.20;99.90
12568;DHT22;6349;50.904;6.136;2022-09-03T16:29:19;24.20;99.90
12568;DHT22;6349;50.904;6.136;2022-09-03T16:38:09;24.30;99.90
12568;DHT22;6349;50.904;6.136;2022-09-03T16:40:41;24.50;99.90
12568;DHT22;6349;50.904;6.136;2022-09-03T16:50:55;24.50;99.90
12568;DHT22;6349;50.904;6.136;2022-09-03T16:53:50;24.30;99.90
12568;DHT22;6349;50.904;6.136;2022-09-03T16:57:00;24.30;99.90
12568;DHT22;6349;50.904;6.136;2022-09-03T16:59:52;24.20;99.90
12568;DHT22;6349;50.904;6.136;2022-09-03T17:05:45;23.90;99.90
12568;DHT22;6349;50.904;6.136;2022-09-03T17:11:31;23.60;99.90
12568;DHT22;6349;50.904;6.136;2022-09-03T17:20:41;23.20;99.90
12568;DHT22;6349;50.904;6.136;2022-09-03T17:25:30;23.10;99.90
12568;DHT22;6349;50.904;6.136;2022-09-03T17:31:15;23.10;99.90
12568;DHT22;6349;50.904;6.136;2022-09-03T17:36:26;23.00;99.90
12568;DHT22;6349;50.904;6.136;2022-09-03T17:41:53;23.00;99.90
12568;DHT22;6349;50.904;6.136;2022-09-03T17:49:28;23.00;99.90
12568;DHT22;6349;50.904;6.136;2022-09-03T17:52:05;23.00;99.90
12568;DHT22;6349;50.904;6.136;2022-09-03T17:54:46;23.00;99.90
12568;DHT22;6349;50.904;6.136;2022-09-03T17:57:27;23.00;99.90
12568;DHT22;6349;50.904;6.136;2022-09-03T17:59:57;23.00;99.90
12568;DHT22;6349;50.904;6.136;2022-09-03T18:02:49;23.00;99.90
12568;DHT22;6349;50.904;6.136;2022-09-03T18:05:20;22.90;99.90
12568;DHT22;6349;50.904;6.136;2022-09-03T18:08:06;22.80;99.90
12568;DHT22;6349;50.904;6.136;2022-09-03T18:13:41;22.80;99.90
12568;DHT22;6349;50.904;6.136;2022-09-03T18:16:29;22.90;99.90
12568;DHT22;6349;50.904;6.136;2022-09-03T18:18:52;22.90;99.90
12568;DHT22;6349;50.904;6.136;2022-09-03T18:21:21;22.90;99.90
12568;DHT22;6349;50.904;6.136;2022-09-03T18:24:27;22.80;99.90
12568;DHT22;6349;50.904;6.136;2022-09-03T18:27:14;22.80;99.90
12568;DHT22;6349;50.904;6.136;2022-09-03T18:30:07;22.70;99.90
12568;DHT22;6349;50.904;6.136;2022-09-03T18:32:48;22.60;99.90
12568;DHT22;6349;50.904;6.136;2022-09-03T18:35:30;22.50;99.90
12568;DHT22;6349;50.904;6.136;2022-09-03T18:38:11;22.50;99.90
12568;DHT22;6349;50.904;6.136;2022-09-03T18:41:01;22.40;99.90
12568;DHT22;6349;50.904;6.136;2022-09-03T18:44:05;22.40;99.90
12568;DHT22;6349;50.904;6.136;2022-09-03T18:49:29;22.40;99.90
12568;DHT22;6349;50.904;6.136;2022-09-03T18:52:20;22.40;99.90
12568;DHT22;6349;50.904;6.136;2022-09-03T18:55:28;22.30;99.90
12568;DHT22;6349;50.904;6.136;2022-09-03T18:58:38;22.30;99.90
12568;DHT22;6349;50.904;6.136;2022-09-03T19:01:33;22.20;99.90
12568;DHT22;6349;50.904;6.136;2022-09-03T19:10:45;22.10;99.90
12568;DHT22;6349;50.904;6.136;2022-09-03T19:13:34;22.00;99.90
12568;DHT22;6349;50.904;6.136;2022-09-03T19:16:24;22.00;99.90
12568;DHT22;6349;50.904;6.136;2022-09-03T19:22:37;22.00;99.90
12568;DHT22;6349;50.904;6.136;2022-09-03T19:25:19;22.00;99.90
12568;DHT22;6349;50.904;6.136;2022-09-03T19:28:22;21.90;99.90
12568;DHT22;6349;50.904;6.136;2022-09-03T19:31:17;21.80;99.90
12568;DHT22;6349;50.904;6.136;2022-09-03T19:36:41;21.70;99.90
12568;DHT22;6349;50.904;6.136;2022-09-03T19:45:15;21.50;99.90
12568;DHT22;6349;50.904;6.136;2022-09-03T19:50:21;21.50;99.90
12568;DHT22;6349;50.904;6.136;2022-09-03T19:53:07;21.30;99.90
12568;DHT22;6349;50.904;6.136;2022-09-03T19:55:55;21.20;99.90
12568;DHT22;6349;50.904;6.136;2022-09-03T19:58:40;21.10;99.90
12568;DHT22;6349;50.904;6.136;2022-09-03T20:01:28;21.10;99.90
12568;DHT22;6349;50.904;6.136;2022-09-03T20:04:13;21.00;99.90
12568;DHT22;6349;50.904;6.136;2022-09-03T20:06:55;20.90;99.90
12568;DHT22;6349;50.904;6.136;2022-09-03T20:09:39;20.80;99.90
12568;DHT22;6349;50.904;6.136;2022-09-03T20:12:24;20.70;99.90
12568;DHT22;6349;50.904;6.136;2022-09-03T20:14:47;20.60;99.90
12568;DHT22;6349;50.904;6.136;2022-09-03T20:19:36;20.60;99.90
12568;DHT22;6349;50.904;6.136;2022-09-03T20:22:14;20.40;99.90
12568;DHT22;6349;50.904;6.136;2022-09-03T20:27:09;20.40;99.90
12568;DHT22;6349;50.904;6.136;2022-09-03T20:30:11;20.40;99.90
12568;DHT22;6349;50.904;6.136;2022-09-03T20:35:44;20.40;99.90
12568;DHT22;6349;50.904;6.136;2022-09-03T20:43:06;20.30;99.90
12568;DHT22;6349;50.904;6.136;2022-09-03T20:48:31;20.20;99.90
12568;DHT22;6349;50.904;6.136;2022-09-03T20:51:16;20.10;99.90
12568;DHT22;6349;50.904;6.136;2022-09-03T20:54:04;20.10;99.90
12568;DHT22;6349;50.904;6.136;2022-09-03T20:59:40;20.20;99.90
12568;DHT22;6349;50.904;6.136;2022-09-03T21:02:20;20.10;99.90
12568;DHT22;6349;50.904;6.136;2022-09-03T21:04:58;20.10;99.90
12568;DHT22;6349;50.904;6.136;2022-09-03T21:07:46;20.10;99.90
12568;DHT22;6349;50.904;6.136;2022-09-03T21:10:31;20.10;99.90
12568;DHT22;6349;50.904;6.136;2022-09-03T21:18:38;20.00;99.90
12568;DHT22;6349;50.904;6.136;2022-09-03T21:23:35;19.90;99.90